createdAt,value
2018-06-16T00:00:05.853Z,936.18
2018-06-16T00:00:18.378Z,936.19
2018-06-16T00:00:31.436Z,936.15
2018-06-16T00:00:44.441Z,936.15
2018-06-16T00:00:56.964Z,936.21
2018-06-16T00:01:09.997Z,936.16
2018-06-16T00:01:22.523Z,936.17
2018-06-16T00:01:35.041Z,936.19
2018-06-16T00:01:47.098Z,936.2
2018-06-16T00:02:00.059Z,936.19
2018-06-16T00:02:12.985Z,936.24
2018-06-16T00:02:25.110Z,936.2
2018-06-16T00:02:38.035Z,936.19
2018-06-16T00:02:50.528Z,936.18
2018-06-16T00:03:03.023Z,936.17
2018-06-16T00:03:15.587Z,936.2
2018-06-16T00:03:28.555Z,936.18
2018-06-16T00:03:41.562Z,936.17
2018-06-16T00:03:54.063Z,936.22
2018-06-16T00:04:06.216Z,936.2
2018-06-16T00:04:19.520Z,936.24
2018-06-16T00:04:32.025Z,936.18
2018-06-16T00:04:44.104Z,936.24
2018-06-16T00:04:56.644Z,936.25
2018-06-16T00:05:08.687Z,936.23
2018-06-16T00:05:21.686Z,936.25
2018-06-16T00:05:34.190Z,936.26
2018-06-16T00:05:46.841Z,936.26
2018-06-16T00:05:59.807Z,936.29
2018-06-16T00:06:12.360Z,936.22
2018-06-16T00:06:25.368Z,936.21
2018-06-16T00:06:37.959Z,936.28
2018-06-16T00:06:50.667Z,936.25
2018-06-16T00:07:03.942Z,936.25
2018-06-16T00:07:16.410Z,936.25
2018-06-16T00:07:28.945Z,936.25
2018-06-16T00:07:41.050Z,936.28
2018-06-16T00:07:53.164Z,936.26
2018-06-16T00:08:05.668Z,936.25
2018-06-16T00:08:17.703Z,936.28
2018-06-16T00:08:30.686Z,936.25
2018-06-16T00:08:43.181Z,936.22
2018-06-16T00:08:56.175Z,936.27
2018-06-16T00:09:08.709Z,936.31
2018-06-16T00:09:21.258Z,936.26
2018-06-16T00:09:33.780Z,936.27
2018-06-16T00:09:46.746Z,936.33
2018-06-16T00:09:59.660Z,936.27
2018-06-16T00:10:11.767Z,936.28
2018-06-16T00:10:24.271Z,936.25
2018-06-16T00:10:37.249Z,936.27
2018-06-16T00:10:49.804Z,936.28
2018-06-16T00:11:02.288Z,936.27
2018-06-16T00:11:13.843Z,936.27
2018-06-16T00:11:25.421Z,936.23
2018-06-16T00:11:38.436Z,936.26
2018-06-16T00:11:51.452Z,936.25
2018-06-16T00:12:04.366Z,936.27
2018-06-16T00:12:16.650Z,936.32
2018-06-16T00:12:29.653Z,936.28
2018-06-16T00:12:42.216Z,936.24
2018-06-16T00:12:54.219Z,936.24
2018-06-16T00:13:06.757Z,936.29
2018-06-16T00:13:19.837Z,936.27
2018-06-16T00:13:32.809Z,936.32
2018-06-16T00:13:44.905Z,936.29
2018-06-16T00:13:58.027Z,936.3
2018-06-16T00:14:10.974Z,936.33
2018-06-16T00:14:23.441Z,936.29
2018-06-16T00:14:36.056Z,936.34
2018-06-16T00:14:48.547Z,936.35
2018-06-16T00:15:01.095Z,936.28
2018-06-16T00:15:14.054Z,936.29
2018-06-16T00:15:25.151Z,936.28
2018-06-16T00:15:38.353Z,936.27
2018-06-16T00:15:51.333Z,936.3
2018-06-16T00:16:03.883Z,936.26
2018-06-16T00:16:15.926Z,936.29
2018-06-16T00:16:28.417Z,936.31
2018-06-16T00:16:40.905Z,936.29
2018-06-16T00:16:53.649Z,936.26
2018-06-16T00:17:05.716Z,936.3
2018-06-16T00:17:19.433Z,936.28
2018-06-16T00:17:31.407Z,936.31
2018-06-16T00:17:43.435Z,936.28
2018-06-16T00:17:55.967Z,936.25
2018-06-16T00:18:08.048Z,936.27
2018-06-16T00:18:20.588Z,936.29
2018-06-16T00:18:33.540Z,936.33
2018-06-16T00:18:46.455Z,936.25
2018-06-16T00:18:58.497Z,936.3
2018-06-16T00:19:11.425Z,936.3
2018-06-16T00:19:24.711Z,936.3
2018-06-16T00:19:37.701Z,936.31
2018-06-16T00:19:50.684Z,936.3
2018-06-16T00:20:03.216Z,936.34
2018-06-16T00:20:16.212Z,936.26
2018-06-16T00:20:29.225Z,936.3
2018-06-16T00:20:41.728Z,936.32
2018-06-16T00:20:54.296Z,936.39
2018-06-16T00:21:07.259Z,936.34
2018-06-16T00:21:19.854Z,936.33
2018-06-16T00:21:32.844Z,936.38
2018-06-16T00:21:45.812Z,936.34
2018-06-16T00:21:58.439Z,936.32
2018-06-16T00:22:10.951Z,936.34
2018-06-16T00:22:23.936Z,936.36
2018-06-16T00:22:36.008Z,936.3
2018-06-16T00:22:48.611Z,936.41
2018-06-16T00:23:01.591Z,936.37
2018-06-16T00:23:14.149Z,936.34
2018-06-16T00:23:27.293Z,936.43
2018-06-16T00:23:40.327Z,936.36
2018-06-16T00:23:52.550Z,936.33
2018-06-16T00:24:05.611Z,936.45
2018-06-16T00:24:17.661Z,936.41
2018-06-16T00:24:30.122Z,936.39
2018-06-16T00:24:42.636Z,936.34
2018-06-16T00:24:55.631Z,936.34
2018-06-16T00:25:07.679Z,936.37
2018-06-16T00:25:20.664Z,936.36
2018-06-16T00:25:33.201Z,936.36
2018-06-16T00:25:46.160Z,936.37
2018-06-16T00:25:58.700Z,936.32
2018-06-16T00:26:10.777Z,936.31
2018-06-16T00:26:23.732Z,936.33
2018-06-16T00:26:36.682Z,936.33
2018-06-16T00:26:48.687Z,936.31
2018-06-16T00:27:01.164Z,936.33
2018-06-16T00:27:13.694Z,936.33
2018-06-16T00:27:25.780Z,936.35
2018-06-16T00:27:38.792Z,936.33
2018-06-16T00:27:51.780Z,936.39
2018-06-16T00:28:04.306Z,936.27
2018-06-16T00:28:17.305Z,936.32
2018-06-16T00:28:30.314Z,936.29
2018-06-16T00:28:42.767Z,936.29
2018-06-16T00:28:55.287Z,936.27
2018-06-16T00:29:07.781Z,936.34
2018-06-16T00:29:20.300Z,936.31
2018-06-16T00:29:32.054Z,936.33
2018-06-16T00:29:44.082Z,936.38
2018-06-16T00:29:56.630Z,936.38
2018-06-16T00:30:08.721Z,936.4
2018-06-16T00:30:21.222Z,936.37
2018-06-16T00:30:34.234Z,936.37
2018-06-16T00:30:47.254Z,936.4
2018-06-16T00:31:00.246Z,936.36
2018-06-16T00:31:12.735Z,936.42
2018-06-16T00:31:25.666Z,936.42
2018-06-16T00:31:37.753Z,936.42
2018-06-16T00:31:50.812Z,936.39
2018-06-16T00:32:03.809Z,936.46
2018-06-16T00:32:16.775Z,936.45
2018-06-16T00:32:28.808Z,936.48
2018-06-16T00:32:41.803Z,936.48
2018-06-16T00:32:54.813Z,936.46
2018-06-16T00:33:07.961Z,936.46
2018-06-16T00:33:20.464Z,936.52
2018-06-16T00:33:33.421Z,936.5
2018-06-16T00:33:45.505Z,936.45
2018-06-16T00:33:58.651Z,936.42
2018-06-16T00:34:11.200Z,936.46
2018-06-16T00:34:23.723Z,936.45
2018-06-16T00:34:38.475Z,936.42
2018-06-16T00:34:51.452Z,936.45
2018-06-16T00:35:04.444Z,936.43
2018-06-16T00:35:17.487Z,936.44
2018-06-16T00:35:29.720Z,936.45
2018-06-16T00:35:42.374Z,936.36
2018-06-16T00:35:55.403Z,936.42
2018-06-16T00:36:08.362Z,936.43
2018-06-16T00:36:20.879Z,936.43
2018-06-16T00:36:33.879Z,936.41
2018-06-16T00:36:46.432Z,936.35
2018-06-16T00:37:00.605Z,936.44
2018-06-16T00:37:13.632Z,936.44
2018-06-16T00:37:26.341Z,936.42
2018-06-16T00:37:39.377Z,936.44
2018-06-16T00:37:51.967Z,936.4
2018-06-16T00:38:04.475Z,936.41
2018-06-16T00:38:17.398Z,936.36
2018-06-16T00:38:30.367Z,936.35
2018-06-16T00:38:43.365Z,936.41
2018-06-16T00:38:55.905Z,936.4
2018-06-16T00:39:08.404Z,936.4
2018-06-16T00:39:21.451Z,936.44
2018-06-16T00:39:33.523Z,936.37
2018-06-16T00:39:46.460Z,936.35
2018-06-16T00:39:59.616Z,936.38
2018-06-16T00:40:12.226Z,936.37
2018-06-16T00:40:24.303Z,936.38
2018-06-16T00:40:37.304Z,936.41
2018-06-16T00:40:49.840Z,936.39
2018-06-16T00:41:02.886Z,936.33
2018-06-16T00:41:15.586Z,936.39
2018-06-16T00:41:28.331Z,936.41
2018-06-16T00:41:41.248Z,936.39
2018-06-16T00:41:53.768Z,936.42
2018-06-16T00:42:06.833Z,936.4
2018-06-16T00:42:19.840Z,936.37
2018-06-16T00:42:32.842Z,936.41
2018-06-16T00:42:45.372Z,936.4
2018-06-16T00:42:57.896Z,936.43
2018-06-16T00:43:09.918Z,936.43
2018-06-16T00:43:22.403Z,936.43
2018-06-16T00:43:35.370Z,936.47
2018-06-16T00:43:48.394Z,936.46
2018-06-16T00:44:01.365Z,936.43
2018-06-16T00:44:14.339Z,936.47
2018-06-16T00:44:26.032Z,936.45
2018-06-16T00:44:39.031Z,936.45
2018-06-16T00:44:51.574Z,936.45
2018-06-16T00:45:04.105Z,936.49
2018-06-16T00:45:16.597Z,936.48
2018-06-16T00:45:29.130Z,936.5
2018-06-16T00:45:41.627Z,936.44
2018-06-16T00:45:54.176Z,936.43
2018-06-16T00:46:06.718Z,936.45
2018-06-16T00:46:19.963Z,936.45
2018-06-16T00:46:32.490Z,936.45
2018-06-16T00:46:45.542Z,936.46
2018-06-16T00:46:58.390Z,936.46
2018-06-16T00:47:10.467Z,936.43
2018-06-16T00:47:22.970Z,936.45
2018-06-16T00:47:35.972Z,936.44
2018-06-16T00:47:49.107Z,936.43
2018-06-16T00:48:01.603Z,936.42
2018-06-16T00:48:14.075Z,936.46
2018-06-16T00:48:26.802Z,936.46
2018-06-16T00:48:39.923Z,936.43
2018-06-16T00:48:53.953Z,936.41
2018-06-16T00:49:05.702Z,936.39
2018-06-16T00:49:18.726Z,936.39
2018-06-16T00:49:30.840Z,936.37
2018-06-16T00:49:44.623Z,936.36
2018-06-16T00:49:57.667Z,936.33
2018-06-16T00:50:09.676Z,936.33
2018-06-16T00:50:21.737Z,936.38
2018-06-16T00:50:34.717Z,936.34
2018-06-16T00:50:47.444Z,936.31
2018-06-16T00:51:00.023Z,936.33
2018-06-16T00:51:12.637Z,936.31
2018-06-16T00:51:24.777Z,936.35
2018-06-16T00:51:37.362Z,936.36
2018-06-16T00:51:50.382Z,936.3
2018-06-16T00:52:02.881Z,936.32
2018-06-16T00:52:15.437Z,936.35
2018-06-16T00:52:28.422Z,936.33
2018-06-16T00:52:40.895Z,936.35
2018-06-16T00:52:52.995Z,936.3
2018-06-16T00:53:05.871Z,936.34
2018-06-16T00:53:19.022Z,936.34
2018-06-16T00:53:32.147Z,936.36
2018-06-16T00:53:45.171Z,936.3
2018-06-16T00:53:57.689Z,936.36
2018-06-16T00:54:10.696Z,936.33
2018-06-16T00:54:23.692Z,936.31
2018-06-16T00:54:36.649Z,936.31
2018-06-16T00:54:49.705Z,936.34
2018-06-16T00:55:02.918Z,936.29
2018-06-16T00:55:15.484Z,936.36
2018-06-16T00:55:28.484Z,936.29
2018-06-16T00:55:41.491Z,936.31
2018-06-16T00:55:54.465Z,936.28
2018-06-16T00:56:07.177Z,936.28
2018-06-16T00:56:19.681Z,936.32
2018-06-16T00:56:32.827Z,936.31
2018-06-16T00:56:45.798Z,936.31
2018-06-16T00:56:58.316Z,936.33
2018-06-16T00:57:10.810Z,936.3
2018-06-16T00:57:22.869Z,936.26
2018-06-16T00:57:35.860Z,936.25
2018-06-16T00:57:48.518Z,936.32
2018-06-16T00:58:01.037Z,936.33
2018-06-16T00:58:13.542Z,936.33
2018-06-16T00:58:25.580Z,936.24
2018-06-16T00:58:38.581Z,936.29
2018-06-16T00:58:51.752Z,936.25
2018-06-16T00:59:04.720Z,936.29
2018-06-16T00:59:17.245Z,936.28
2018-06-16T00:59:29.784Z,936.27
2018-06-16T00:59:41.953Z,936.29
2018-06-16T00:59:54.959Z,936.27
2018-06-16T01:00:06.996Z,936.29
2018-06-16T01:00:19.908Z,936.28
2018-06-16T01:00:32.908Z,936.31
2018-06-16T01:00:45.876Z,936.28
2018-06-16T01:00:59.502Z,936.33
2018-06-16T01:01:12.831Z,936.33
2018-06-16T01:01:25.330Z,936.33
2018-06-16T01:01:38.691Z,936.35
2018-06-16T01:01:51.247Z,936.32
2018-06-16T01:02:04.263Z,936.37
2018-06-16T01:02:16.802Z,936.35
2018-06-16T01:02:29.347Z,936.35
2018-06-16T01:02:43.982Z,936.33
2018-06-16T01:02:57.004Z,936.35
2018-06-16T01:03:09.100Z,936.38
2018-06-16T01:03:21.580Z,936.37
2018-06-16T01:03:34.591Z,936.35
2018-06-16T01:03:47.685Z,936.4
2018-06-16T01:04:00.435Z,936.35
2018-06-16T01:04:12.962Z,936.4
2018-06-16T01:04:25.874Z,936.39
2018-06-16T01:04:37.920Z,936.35
2018-06-16T01:04:50.425Z,936.38
2018-06-16T01:05:02.964Z,936.39
2018-06-16T01:05:15.484Z,936.4
2018-06-16T01:05:27.984Z,936.44
2018-06-16T01:05:41.154Z,936.49
2018-06-16T01:05:53.687Z,936.41
2018-06-16T01:06:06.935Z,936.39
2018-06-16T01:06:19.649Z,936.42
2018-06-16T01:06:32.670Z,936.43
2018-06-16T01:06:45.606Z,936.4
2018-06-16T01:06:58.595Z,936.41
2018-06-16T01:07:11.606Z,936.44
2018-06-16T01:07:24.531Z,936.44
2018-06-16T01:07:37.123Z,936.41
2018-06-16T01:07:49.646Z,936.44
2018-06-16T01:08:02.846Z,936.47
2018-06-16T01:08:14.892Z,936.45
2018-06-16T01:08:27.926Z,936.43
2018-06-16T01:08:40.657Z,936.42
2018-06-16T01:08:53.115Z,936.41
2018-06-16T01:09:04.687Z,936.42
2018-06-16T01:09:16.987Z,936.44
2018-06-16T01:09:29.975Z,936.46
2018-06-16T01:09:42.517Z,936.47
2018-06-16T01:09:54.668Z,936.47
2018-06-16T01:10:06.827Z,936.46
2018-06-16T01:10:18.960Z,936.45
2018-06-16T01:10:31.933Z,936.45
2018-06-16T01:10:43.991Z,936.48
2018-06-16T01:10:56.945Z,936.43
2018-06-16T01:11:09.188Z,936.48
2018-06-16T01:11:21.699Z,936.48
2018-06-16T01:11:33.867Z,936.48
2018-06-16T01:11:46.393Z,936.45
2018-06-16T01:11:59.580Z,936.46
2018-06-16T01:12:11.616Z,936.45
2018-06-16T01:12:25.786Z,936.44
2018-06-16T01:12:38.611Z,936.46
2018-06-16T01:12:51.386Z,936.47
2018-06-16T01:13:04.333Z,936.49
2018-06-16T01:13:16.856Z,936.48
2018-06-16T01:13:30.791Z,936.55
2018-06-16T01:13:43.816Z,936.5
2018-06-16T01:13:56.309Z,936.45
2018-06-16T01:14:10.672Z,936.45
2018-06-16T01:14:23.654Z,936.44
2018-06-16T01:14:36.833Z,936.48
2018-06-16T01:14:49.851Z,936.46
2018-06-16T01:15:02.575Z,936.49
2018-06-16T01:15:15.132Z,936.5
2018-06-16T01:15:28.187Z,936.5
2018-06-16T01:15:40.689Z,936.47
2018-06-16T01:15:53.962Z,936.48
2018-06-16T01:16:06.533Z,936.49
2018-06-16T01:16:19.809Z,936.46
2018-06-16T01:16:32.299Z,936.48
2018-06-16T01:16:44.855Z,936.45
2018-06-16T01:16:57.844Z,936.5
2018-06-16T01:17:10.573Z,936.53
2018-06-16T01:17:23.488Z,936.49
2018-06-16T01:17:36.020Z,936.5
2018-06-16T01:17:50.574Z,936.5
2018-06-16T01:18:03.310Z,936.54
2018-06-16T01:18:15.786Z,936.5
2018-06-16T01:18:27.791Z,936.5
2018-06-16T01:18:39.882Z,936.5
2018-06-16T01:18:53.017Z,936.51
2018-06-16T01:19:05.571Z,936.48
2018-06-16T01:19:18.094Z,936.48
2018-06-16T01:19:31.058Z,936.53
2018-06-16T01:19:44.013Z,936.53
2018-06-16T01:19:57.519Z,936.56
2018-06-16T01:20:09.132Z,936.52
2018-06-16T01:20:21.944Z,936.55
2018-06-16T01:20:34.960Z,936.53
2018-06-16T01:20:47.470Z,936.5
2018-06-16T01:21:00.113Z,936.53
2018-06-16T01:21:12.841Z,936.55
2018-06-16T01:21:25.575Z,936.54
2018-06-16T01:21:37.939Z,936.6
2018-06-16T01:21:50.439Z,936.55
2018-06-16T01:22:02.226Z,936.57
2018-06-16T01:22:15.165Z,936.59
2018-06-16T01:22:28.138Z,936.59
2018-06-16T01:22:41.481Z,936.61
2018-06-16T01:22:53.538Z,936.6
2018-06-16T01:23:06.087Z,936.59
2018-06-16T01:23:19.228Z,936.59
2018-06-16T01:23:31.745Z,936.59
2018-06-16T01:23:44.721Z,936.6
2018-06-16T01:23:57.272Z,936.62
2018-06-16T01:24:10.714Z,936.67
2018-06-16T01:24:23.243Z,936.61
2018-06-16T01:24:36.279Z,936.66
2018-06-16T01:24:49.466Z,936.65
2018-06-16T01:25:01.496Z,936.62
2018-06-16T01:25:14.569Z,936.6
2018-06-16T01:25:27.339Z,936.65
2018-06-16T01:25:39.839Z,936.65
2018-06-16T01:25:53.035Z,936.64
2018-06-16T01:26:05.131Z,936.65
2018-06-16T01:26:18.157Z,936.63
2018-06-16T01:26:30.395Z,936.7
2018-06-16T01:26:43.394Z,936.66
2018-06-16T01:26:55.463Z,936.65
2018-06-16T01:27:08.079Z,936.66
2018-06-16T01:27:21.323Z,936.68
2018-06-16T01:27:34.467Z,936.64
2018-06-16T01:27:47.618Z,936.7
2018-06-16T01:28:00.658Z,936.64
2018-06-16T01:28:13.212Z,936.64
2018-06-16T01:28:26.313Z,936.67
2018-06-16T01:28:38.906Z,936.63
2018-06-16T01:28:51.915Z,936.68
2018-06-16T01:29:04.437Z,936.7
2018-06-16T01:29:17.536Z,936.71
2018-06-16T01:29:30.973Z,936.73
2018-06-16T01:29:43.504Z,936.69
2018-06-16T01:29:56.299Z,936.66
2018-06-16T01:30:08.874Z,936.73
2018-06-16T01:30:21.044Z,936.69
2018-06-16T01:30:35.523Z,936.72
2018-06-16T01:30:49.996Z,936.7
2018-06-16T01:31:02.515Z,936.69
2018-06-16T01:31:15.167Z,936.74
2018-06-16T01:31:28.266Z,936.76
2018-06-16T01:31:41.864Z,936.74
2018-06-16T01:31:54.942Z,936.77
2018-06-16T01:32:09.981Z,936.79
2018-06-16T01:32:24.359Z,936.79
2018-06-16T01:32:37.422Z,936.77
2018-06-16T01:32:50.418Z,936.78
2018-06-16T01:33:02.562Z,936.8
2018-06-16T01:33:15.101Z,936.75
2018-06-16T01:33:27.641Z,936.82
2018-06-16T01:33:39.704Z,936.81
2018-06-16T01:33:52.697Z,936.83
2018-06-16T01:34:05.287Z,936.79
2018-06-16T01:34:18.620Z,936.84
2018-06-16T01:34:31.645Z,936.81
2018-06-16T01:34:44.735Z,936.86
2018-06-16T01:34:58.364Z,936.81
2018-06-16T01:35:12.849Z,936.83
2018-06-16T01:35:25.852Z,936.81
2018-06-16T01:35:38.545Z,936.86
2018-06-16T01:35:51.193Z,936.84
2018-06-16T01:36:03.825Z,936.88
2018-06-16T01:36:16.998Z,936.9
2018-06-16T01:36:30.010Z,936.89
2018-06-16T01:36:43.064Z,936.86
2018-06-16T01:36:55.655Z,936.83
2018-06-16T01:37:08.569Z,936.88
2018-06-16T01:37:20.626Z,936.86
2018-06-16T01:37:33.294Z,936.85
2018-06-16T01:37:46.326Z,936.85
2018-06-16T01:37:59.433Z,936.82
2018-06-16T01:38:12.069Z,936.83
2018-06-16T01:38:25.072Z,936.86
2018-06-16T01:38:37.542Z,936.86
2018-06-16T01:38:50.692Z,936.89
2018-06-16T01:39:03.675Z,936.9
2018-06-16T01:39:15.773Z,936.88
2018-06-16T01:39:28.767Z,936.83
2018-06-16T01:39:42.794Z,936.8
2018-06-16T01:39:58.468Z,936.94
2018-06-16T01:40:11.223Z,936.89
2018-06-16T01:40:23.343Z,936.86
2018-06-16T01:40:36.632Z,936.78
2018-06-16T01:40:49.343Z,936.82
2018-06-16T01:41:02.353Z,936.78
2018-06-16T01:41:16.625Z,936.81
2018-06-16T01:41:28.220Z,936.75
2018-06-16T01:41:41.357Z,936.73
2018-06-16T01:41:54.008Z,936.75
2018-06-16T01:42:10.649Z,936.77
2018-06-16T01:42:23.495Z,936.8
2018-06-16T01:42:36.135Z,936.75
2018-06-16T01:42:50.927Z,936.77
2018-06-16T01:43:03.499Z,936.74
2018-06-16T01:43:16.600Z,936.73
2018-06-16T01:43:29.229Z,936.75
2018-06-16T01:43:41.979Z,936.77
2018-06-16T01:43:55.171Z,936.82
2018-06-16T01:44:07.829Z,936.78
2018-06-16T01:44:20.680Z,936.78
2018-06-16T01:44:33.712Z,936.82
2018-06-16T01:44:47.021Z,936.83
2018-06-16T01:45:00.473Z,936.77
2018-06-16T01:45:14.727Z,936.84
2018-06-16T01:45:27.888Z,936.84
2018-06-16T01:45:41.113Z,936.83
2018-06-16T01:45:53.671Z,936.81
2018-06-16T01:46:06.339Z,936.8
2018-06-16T01:46:18.471Z,936.83
2018-06-16T01:46:31.523Z,936.89
2018-06-16T01:46:44.318Z,936.85
2018-06-16T01:46:56.936Z,936.8
2018-06-16T01:47:10.173Z,936.82
2018-06-16T01:47:22.687Z,936.86
2018-06-16T01:47:35.237Z,936.8
2018-06-16T01:47:48.348Z,936.84
2018-06-16T01:48:01.584Z,936.87
2018-06-16T01:48:14.136Z,936.83
2018-06-16T01:48:27.036Z,936.89
2018-06-16T01:48:40.047Z,936.87
2018-06-16T01:48:52.168Z,936.87
2018-06-16T01:49:06.820Z,936.93
2018-06-16T01:49:19.542Z,936.89
2018-06-16T01:49:31.741Z,936.87
2018-06-16T01:49:44.339Z,936.86
2018-06-16T01:49:57.424Z,936.92
2018-06-16T01:50:11.124Z,936.89
2018-06-16T01:50:23.865Z,936.96
2018-06-16T01:50:36.464Z,936.93
2018-06-16T01:50:49.200Z,936.88
2018-06-16T01:51:01.371Z,936.84
2018-06-16T01:51:17.347Z,936.87
2018-06-16T01:51:29.965Z,936.9
2018-06-16T01:51:42.618Z,936.85
2018-06-16T01:51:55.157Z,936.84
2018-06-16T01:52:07.244Z,936.89
2018-06-16T01:52:20.310Z,936.84
2018-06-16T01:52:33.667Z,936.79
2018-06-16T01:52:46.732Z,936.86
2018-06-16T01:52:59.682Z,936.81
2018-06-16T01:53:13.052Z,936.83
2018-06-16T01:53:25.608Z,936.8
2018-06-16T01:53:38.684Z,936.83
2018-06-16T01:53:51.897Z,936.78
2018-06-16T01:54:04.994Z,936.77
2018-06-16T01:54:18.090Z,936.76
2018-06-16T01:54:30.740Z,936.75
2018-06-16T01:54:44.144Z,936.8
2018-06-16T01:54:57.371Z,936.81
2018-06-16T01:55:09.752Z,936.82
2018-06-16T01:55:22.926Z,936.8
2018-06-16T01:55:36.000Z,936.82
2018-06-16T01:55:48.116Z,936.81
2018-06-16T01:56:01.163Z,936.85
2018-06-16T01:56:13.243Z,936.79
2018-06-16T01:56:26.052Z,936.77
2018-06-16T01:56:38.724Z,936.85
2018-06-16T01:56:51.314Z,936.88
2018-06-16T01:57:04.510Z,936.75
2018-06-16T01:57:17.690Z,936.81
2018-06-16T01:57:30.956Z,936.77
2018-06-16T01:57:43.106Z,936.75
2018-06-16T01:57:56.164Z,936.74
2018-06-16T01:58:08.717Z,936.77
2018-06-16T01:58:21.285Z,936.74
2018-06-16T01:58:34.215Z,936.76
2018-06-16T01:58:47.106Z,936.8
2018-06-16T01:59:00.292Z,936.8
2018-06-16T01:59:12.035Z,936.77
2018-06-16T01:59:25.146Z,936.74
2018-06-16T01:59:36.792Z,936.79
2018-06-16T01:59:49.883Z,936.74
2018-06-16T02:00:03.077Z,936.77
2018-06-16T02:00:15.777Z,936.72
2018-06-16T02:00:28.479Z,936.79
2018-06-16T02:00:41.735Z,936.79
2018-06-16T02:00:56.353Z,936.8
2018-06-16T02:01:08.958Z,936.82
2018-06-16T02:01:21.534Z,936.85
2018-06-16T02:01:36.403Z,936.86
2018-06-16T02:01:49.344Z,936.85
2018-06-16T02:02:02.549Z,936.8
2018-06-16T02:02:14.875Z,936.82
2018-06-16T02:02:27.542Z,936.85
2018-06-16T02:02:40.118Z,936.89
2018-06-16T02:02:52.752Z,936.82
2018-06-16T02:03:09.167Z,936.84
2018-06-16T02:03:22.190Z,936.89
2018-06-16T02:03:35.423Z,936.84
2018-06-16T02:03:48.101Z,936.79
2018-06-16T02:04:01.423Z,936.76
2018-06-16T02:04:14.498Z,936.81
2018-06-16T02:04:26.535Z,936.85
2018-06-16T02:04:39.796Z,936.83
2018-06-16T02:04:52.456Z,936.85
2018-06-16T02:05:04.128Z,936.77
2018-06-16T02:05:17.166Z,936.82
2018-06-16T02:05:30.447Z,936.79
2018-06-16T02:05:43.494Z,936.77
2018-06-16T02:05:56.040Z,936.77
2018-06-16T02:06:08.205Z,936.79
2018-06-16T02:06:21.447Z,936.75
2018-06-16T02:06:34.099Z,936.78
2018-06-16T02:06:46.701Z,936.78
2018-06-16T02:06:59.824Z,936.75
2018-06-16T02:07:13.063Z,936.75
2018-06-16T02:07:25.549Z,936.75
2018-06-16T02:07:37.670Z,936.74
2018-06-16T02:07:49.806Z,936.73
2018-06-16T02:08:01.928Z,936.73
2018-06-16T02:08:15.017Z,936.72
2018-06-16T02:08:27.104Z,936.74
2018-06-16T02:08:40.187Z,936.75
2018-06-16T02:08:52.761Z,936.79
2018-06-16T02:09:05.193Z,936.74
2018-06-16T02:09:18.221Z,936.77
2018-06-16T02:09:30.904Z,936.79
2018-06-16T02:09:43.945Z,936.76
2018-06-16T02:09:56.121Z,936.75
2018-06-16T02:10:08.176Z,936.77
2018-06-16T02:10:21.263Z,936.78
2018-06-16T02:10:34.405Z,936.77
2018-06-16T02:10:47.541Z,936.74
2018-06-16T02:11:00.264Z,936.71
2018-06-16T02:11:12.842Z,936.74
2018-06-16T02:11:25.956Z,936.72
2018-06-16T02:11:38.556Z,936.71
2018-06-16T02:11:51.142Z,936.72
2018-06-16T02:12:03.725Z,936.75
2018-06-16T02:12:16.768Z,936.75
2018-06-16T02:12:29.777Z,936.72
2018-06-16T02:12:42.999Z,936.69
2018-06-16T02:12:56.125Z,936.81
2018-06-16T02:13:08.703Z,936.74
2018-06-16T02:13:21.300Z,936.72
2018-06-16T02:13:33.811Z,936.76
2018-06-16T02:13:46.846Z,936.68
2018-06-16T02:13:59.400Z,936.65
2018-06-16T02:14:11.576Z,936.71
2018-06-16T02:14:24.484Z,936.66
2018-06-16T02:14:37.238Z,936.68
2018-06-16T02:14:50.270Z,936.64
2018-06-16T02:15:03.393Z,936.62
2018-06-16T02:15:16.107Z,936.61
2018-06-16T02:15:28.649Z,936.64
2018-06-16T02:15:41.706Z,936.67
2018-06-16T02:15:53.819Z,936.66
2018-06-16T02:16:06.993Z,936.64
2018-06-16T02:16:19.573Z,936.6
2018-06-16T02:16:32.661Z,936.63
2018-06-16T02:16:45.193Z,936.65
2018-06-16T02:16:58.281Z,936.69
2018-06-16T02:17:11.300Z,936.7
2018-06-16T02:17:24.373Z,936.7
2018-06-16T02:17:37.212Z,936.66
2018-06-16T02:17:49.908Z,936.69
2018-06-16T02:18:02.177Z,936.66
2018-06-16T02:18:14.421Z,936.68
2018-06-16T02:18:27.036Z,936.67
2018-06-16T02:18:39.563Z,936.66
2018-06-16T02:18:52.619Z,936.7
2018-06-16T02:19:05.881Z,936.73
2018-06-16T02:19:17.676Z,936.72
2018-06-16T02:19:30.348Z,936.75
2018-06-16T02:19:45.346Z,936.72
2018-06-16T02:19:58.075Z,936.71
2018-06-16T02:20:11.912Z,936.7
2018-06-16T02:20:24.471Z,936.66
2018-06-16T02:20:37.616Z,936.67
2018-06-16T02:20:50.249Z,936.71
2018-06-16T02:21:02.865Z,936.71
2018-06-16T02:21:14.559Z,936.67
2018-06-16T02:21:27.620Z,936.7
2018-06-16T02:21:40.596Z,936.67
2018-06-16T02:21:53.174Z,936.69
2018-06-16T02:22:06.207Z,936.72
2018-06-16T02:22:19.440Z,936.74
2018-06-16T02:22:32.023Z,936.75
2018-06-16T02:22:45.122Z,936.78
2018-06-16T02:22:58.163Z,936.75
2018-06-16T02:23:10.874Z,936.66
2018-06-16T02:23:23.934Z,936.67
2018-06-16T02:23:37.289Z,936.73
2018-06-16T02:23:49.944Z,936.63
2018-06-16T02:24:02.507Z,936.65
2018-06-16T02:24:14.649Z,936.67
2018-06-16T02:24:27.741Z,936.7
2018-06-16T02:24:40.820Z,936.73
2018-06-16T02:24:53.432Z,936.68
2018-06-16T02:25:05.476Z,936.75
2018-06-16T02:25:18.782Z,936.74
2018-06-16T02:25:31.338Z,936.71
2018-06-16T02:25:43.399Z,936.76
2018-06-16T02:25:56.484Z,936.76
2018-06-16T02:26:09.088Z,936.74
2018-06-16T02:26:21.644Z,936.74
2018-06-16T02:26:34.583Z,936.77
2018-06-16T02:26:47.648Z,936.72
2018-06-16T02:27:00.248Z,936.72
2018-06-16T02:27:12.901Z,936.74
2018-06-16T02:27:25.431Z,936.73
2018-06-16T02:27:38.021Z,936.73
2018-06-16T02:27:50.631Z,936.73
2018-06-16T02:28:03.968Z,936.7
2018-06-16T02:28:16.579Z,936.71
2018-06-16T02:28:29.685Z,936.74
2018-06-16T02:28:42.198Z,936.69
2018-06-16T02:28:55.302Z,936.7
2018-06-16T02:29:07.647Z,936.7
2018-06-16T02:29:20.668Z,936.67
2018-06-16T02:29:33.988Z,936.7
2018-06-16T02:29:46.561Z,936.7
2018-06-16T02:29:59.507Z,936.71
2018-06-16T02:30:12.280Z,936.69
2018-06-16T02:30:24.995Z,936.71
2018-06-16T02:30:38.000Z,936.72
2018-06-16T02:30:50.765Z,936.7
2018-06-16T02:31:02.937Z,936.7
2018-06-16T02:31:15.499Z,936.7
2018-06-16T02:31:28.566Z,936.72
2018-06-16T02:31:41.694Z,936.68
2018-06-16T02:31:54.927Z,936.73
2018-06-16T02:32:07.925Z,936.76
2018-06-16T02:32:20.609Z,936.69
2018-06-16T02:32:33.831Z,936.72
2018-06-16T02:32:46.511Z,936.73
2018-06-16T02:32:59.636Z,936.79
2018-06-16T02:33:11.825Z,936.73
2018-06-16T02:33:23.976Z,936.76
2018-06-16T02:33:37.053Z,936.76
2018-06-16T02:33:49.715Z,936.79
2018-06-16T02:34:02.275Z,936.74
2018-06-16T02:34:14.452Z,936.73
2018-06-16T02:34:27.768Z,936.72
2018-06-16T02:34:40.332Z,936.72
2018-06-16T02:34:52.963Z,936.67
2018-06-16T02:35:06.218Z,936.7
2018-06-16T02:35:20.137Z,936.7
2018-06-16T02:35:32.687Z,936.69
2018-06-16T02:35:45.264Z,936.67
2018-06-16T02:35:58.288Z,936.67
2018-06-16T02:36:11.339Z,936.69
2018-06-16T02:36:24.049Z,936.69
2018-06-16T02:36:37.308Z,936.68
2018-06-16T02:36:49.412Z,936.71
2018-06-16T02:37:02.520Z,936.69
2018-06-16T02:37:15.090Z,936.72
2018-06-16T02:37:27.214Z,936.7
2018-06-16T02:37:40.256Z,936.69
2018-06-16T02:37:53.582Z,936.74
2018-06-16T02:38:06.737Z,936.77
2018-06-16T02:38:19.266Z,936.7
2018-06-16T02:38:31.892Z,936.7
2018-06-16T02:38:44.484Z,936.72
2018-06-16T02:38:57.198Z,936.73
2018-06-16T02:39:10.481Z,936.72
2018-06-16T02:39:23.270Z,936.75
2018-06-16T02:39:35.952Z,936.7
2018-06-16T02:39:48.545Z,936.7
2018-06-16T02:40:01.645Z,936.76
2018-06-16T02:40:14.291Z,936.75